METAR Data
IDs: Format: Raw Decoded Include TAF

Data at: 0744 UTC 24 Mar 2019

KAEG 240735Z AUTO 30008KT 10SM CLR 04/M04 A3011 RMK AO2 T00381044

KAEG 240539Z 2406/2506 31005KT P6SM FEW070 SCT250
  FM241800 28011KT P6SM SCT200
  FM242100 28017G25KT P6SM SKC
  FM250300 30008KT P6SM SKC